« Back
NWS Peachtree City, Ga » Text Product » ATL Terminal Aerodrome Forecast


Printer-friendly Version
Current Version              Previous Versions:   1  2  3  4  5  6  7  8  9  

Terminal Aerodrome Forecast

001
FTUS42 KFFC 020930 AAB
TAFATL
TAF AMD
KATL 020930Z 0210/0312 VRB03KT P6SM FEW050 SCT250
     FM021200 30003KT P6SM FEW050 SCT250
     FM021500 30004KT P6SM SCT035 SCT250
     FM021800 31006KT P6SM BKN045
     FM030000 30005KT P6SM SCT050 BKN200=

USA.gov is the U.S. government's official web portal to all federal, state and local government web resources and services.